sensor_id;sensor_type;location;lat;lon;timestamp;temperature;humidity
71523;HTU21D;59343;51.102;5.884;2023-03-04T00:01:43;5.98;73.30
71523;HTU21D;59343;51.102;5.884;2023-03-04T00:04:09;5.99;73.28
71523;HTU21D;59343;51.102;5.884;2023-03-04T00:06:36;5.99;73.36
71523;HTU21D;59343;51.102;5.884;2023-03-04T00:09:02;6.00;73.28
71523;HTU21D;59343;51.102;5.884;2023-03-04T00:11:30;6.02;73.12
71523;HTU21D;59343;51.102;5.884;2023-03-04T00:13:56;6.04;73.08
71523;HTU21D;59343;51.102;5.884;2023-03-04T00:16:23;6.04;73.19
71523;HTU21D;59343;51.102;5.884;2023-03-04T00:18:52;6.05;73.12
71523;HTU21D;59343;51.102;5.884;2023-03-04T00:21:19;6.07;72.93
71523;HTU21D;59343;51.102;5.884;2023-03-04T00:23:45;6.10;72.82
71523;HTU21D;59343;51.102;5.884;2023-03-04T00:26:11;6.09;72.74
71523;HTU21D;59343;51.102;5.884;2023-03-04T00:28:39;6.11;72.70
71523;HTU21D;59343;51.102;5.884;2023-03-04T00:31:06;6.10;72.70
71523;HTU21D;59343;51.102;5.884;2023-03-04T00:33:32;6.12;72.69
71523;HTU21D;59343;51.102;5.884;2023-03-04T00:35:59;6.15;72.58
71523;HTU21D;59343;51.102;5.884;2023-03-04T00:38:24;6.14;72.60
71523;HTU21D;59343;51.102;5.884;2023-03-04T00:40:51;6.15;72.53
71523;HTU21D;59343;51.102;5.884;2023-03-04T00:43:17;6.13;72.51
71523;HTU21D;59343;51.102;5.884;2023-03-04T00:45:43;6.12;72.65
71523;HTU21D;59343;51.102;5.884;2023-03-04T00:48:10;6.12;72.72
71523;HTU21D;59343;51.102;5.884;2023-03-04T00:50:36;6.13;72.74
71523;HTU21D;59343;51.102;5.884;2023-03-04T00:53:03;6.13;72.73
71523;HTU21D;59343;51.102;5.884;2023-03-04T00:55:29;6.14;72.70
71523;HTU21D;59343;51.102;5.884;2023-03-04T00:57:55;6.16;72.67
71523;HTU21D;59343;51.102;5.884;2023-03-04T01:00:22;6.17;72.53
71523;HTU21D;59343;51.102;5.884;2023-03-04T01:02:48;6.16;72.48
71523;HTU21D;59343;51.102;5.884;2023-03-04T01:05:14;6.15;72.54
71523;HTU21D;59343;51.102;5.884;2023-03-04T01:07:40;6.14;72.58
71523;HTU21D;59343;51.102;5.884;2023-03-04T01:10:09;6.13;72.62
71523;HTU21D;59343;51.102;5.884;2023-03-04T01:12:35;6.10;72.72
71523;HTU21D;59343;51.102;5.884;2023-03-04T01:15:01;6.09;72.71
71523;HTU21D;59343;51.102;5.884;2023-03-04T01:17:27;6.10;72.74
71523;HTU21D;59343;51.102;5.884;2023-03-04T01:19:53;6.08;72.68
71523;HTU21D;59343;51.102;5.884;2023-03-04T01:22:19;6.09;72.55
71523;HTU21D;59343;51.102;5.884;2023-03-04T01:24:46;6.08;72.51
71523;HTU21D;59343;51.102;5.884;2023-03-04T01:27:12;6.08;72.59
71523;HTU21D;59343;51.102;5.884;2023-03-04T01:29:38;6.08;72.64
71523;HTU21D;59343;51.102;5.884;2023-03-04T01:32:04;6.10;72.63
71523;HTU21D;59343;51.102;5.884;2023-03-04T01:34:30;6.12;72.65
71523;HTU21D;59343;51.102;5.884;2023-03-04T01:36:56;6.14;72.42
71523;HTU21D;59343;51.102;5.884;2023-03-04T01:39:22;6.15;72.35
71523;HTU21D;59343;51.102;5.884;2023-03-04T01:41:50;6.15;72.35
71523;HTU21D;59343;51.102;5.884;2023-03-04T01:44:16;6.15;72.38
71523;HTU21D;59343;51.102;5.884;2023-03-04T01:46:48;6.15;72.40
71523;HTU21D;59343;51.102;5.884;2023-03-04T01:49:14;6.13;72.44
71523;HTU21D;59343;51.102;5.884;2023-03-04T01:51:43;6.12;72.60
71523;HTU21D;59343;51.102;5.884;2023-03-04T01:54:11;6.12;72.67
71523;HTU21D;59343;51.102;5.884;2023-03-04T01:56:38;6.14;72.68
71523;HTU21D;59343;51.102;5.884;2023-03-04T01:59:15;6.15;72.67
71523;HTU21D;59343;51.102;5.884;2023-03-04T02:01:47;6.16;72.64
71523;HTU21D;59343;51.102;5.884;2023-03-04T02:04:16;6.17;72.72
71523;HTU21D;59343;51.102;5.884;2023-03-04T02:06:43;6.16;72.74
71523;HTU21D;59343;51.102;5.884;2023-03-04T02:09:13;6.20;72.72
71523;HTU21D;59343;51.102;5.884;2023-03-04T02:11:39;6.19;72.62
71523;HTU21D;59343;51.102;5.884;2023-03-04T02:14:06;6.19;72.69
71523;HTU21D;59343;51.102;5.884;2023-03-04T02:16:32;6.19;72.64
71523;HTU21D;59343;51.102;5.884;2023-03-04T02:18:59;6.20;72.69
71523;HTU21D;59343;51.102;5.884;2023-03-04T02:21:31;6.22;72.55
71523;HTU21D;59343;51.102;5.884;2023-03-04T02:26:58;6.27;72.46
71523;HTU21D;59343;51.102;5.884;2023-03-04T02:29:24;6.25;72.24
71523;HTU21D;59343;51.102;5.884;2023-03-04T02:31:52;6.24;72.24
71523;HTU21D;59343;51.102;5.884;2023-03-04T02:34:22;6.24;72.14
71523;HTU21D;59343;51.102;5.884;2023-03-04T02:36:51;6.25;72.09
71523;HTU21D;59343;51.102;5.884;2023-03-04T02:39:34;6.28;71.91
71523;HTU21D;59343;51.102;5.884;2023-03-04T02:42:02;6.33;71.66
71523;HTU21D;59343;51.102;5.884;2023-03-04T02:44:33;6.31;71.63
71523;HTU21D;59343;51.102;5.884;2023-03-04T02:47:00;6.33;71.67
71523;HTU21D;59343;51.102;5.884;2023-03-04T02:49:29;6.36;71.67
71523;HTU21D;59343;51.102;5.884;2023-03-04T02:52:17;6.35;71.65
71523;HTU21D;59343;51.102;5.884;2023-03-04T02:54:44;6.35;71.74
71523;HTU21D;59343;51.102;5.884;2023-03-04T02:57:12;6.29;71.70
71523;HTU21D;59343;51.102;5.884;2023-03-04T02:59:42;6.26;71.52
71523;HTU21D;59343;51.102;5.884;2023-03-04T03:02:12;6.24;71.47
71523;HTU21D;59343;51.102;5.884;2023-03-04T03:04:39;6.24;71.45
71523;HTU21D;59343;51.102;5.884;2023-03-04T03:07:08;6.26;71.29
71523;HTU21D;59343;51.102;5.884;2023-03-04T03:09:35;6.26;71.13
71523;HTU21D;59343;51.102;5.884;2023-03-04T03:12:01;6.26;71.11
71523;HTU21D;59343;51.102;5.884;2023-03-04T03:14:29;6.26;71.06
71523;HTU21D;59343;51.102;5.884;2023-03-04T03:16:55;6.26;71.07
71523;HTU21D;59343;51.102;5.884;2023-03-04T03:19:21;6.27;71.12
71523;HTU21D;59343;51.102;5.884;2023-03-04T03:21:47;6.28;71.12
71523;HTU21D;59343;51.102;5.884;2023-03-04T03:24:13;6.29;71.16
71523;HTU21D;59343;51.102;5.884;2023-03-04T03:26:39;6.34;71.15
71523;HTU21D;59343;51.102;5.884;2023-03-04T03:29:07;6.37;71.21
71523;HTU21D;59343;51.102;5.884;2023-03-04T03:31:33;6.41;71.19
71523;HTU21D;59343;51.102;5.884;2023-03-04T03:33:58;6.44;71.14
71523;HTU21D;59343;51.102;5.884;2023-03-04T03:36:25;6.46;70.96
71523;HTU21D;59343;51.102;5.884;2023-03-04T03:38:51;6.45;71.07
71523;HTU21D;59343;51.102;5.884;2023-03-04T03:41:17;6.45;71.14
71523;HTU21D;59343;51.102;5.884;2023-03-04T03:43:43;6.44;71.30
71523;HTU21D;59343;51.102;5.884;2023-03-04T03:46:09;6.44;71.46
71523;HTU21D;59343;51.102;5.884;2023-03-04T03:48:35;6.44;71.51
71523;HTU21D;59343;51.102;5.884;2023-03-04T03:51:00;6.46;71.54
71523;HTU21D;59343;51.102;5.884;2023-03-04T03:53:26;6.46;71.63
71523;HTU21D;59343;51.102;5.884;2023-03-04T03:55:52;6.45;71.77
71523;HTU21D;59343;51.102;5.884;2023-03-04T03:58:18;6.46;71.78
71523;HTU21D;59343;51.102;5.884;2023-03-04T04:00:44;6.41;71.82
71523;HTU21D;59343;51.102;5.884;2023-03-04T04:03:14;6.38;71.73
71523;HTU21D;59343;51.102;5.884;2023-03-04T04:05:40;6.35;71.73
71523;HTU21D;59343;51.102;5.884;2023-03-04T04:08:06;6.31;71.78
71523;HTU21D;59343;51.102;5.884;2023-03-04T04:10:32;6.29;71.90
71523;HTU21D;59343;51.102;5.884;2023-03-04T04:12:57;6.30;72.07
71523;HTU21D;59343;51.102;5.884;2023-03-04T04:15:23;6.33;71.97
71523;HTU21D;59343;51.102;5.884;2023-03-04T04:17:49;6.35;71.87
71523;HTU21D;59343;51.102;5.884;2023-03-04T04:20:15;6.34;71.80
71523;HTU21D;59343;51.102;5.884;2023-03-04T04:22:41;6.31;71.79
71523;HTU21D;59343;51.102;5.884;2023-03-04T04:25:07;6.29;71.73
71523;HTU21D;59343;51.102;5.884;2023-03-04T04:27:35;6.30;71.74
71523;HTU21D;59343;51.102;5.884;2023-03-04T04:30:01;6.27;71.74
71523;HTU21D;59343;51.102;5.884;2023-03-04T04:32:27;6.25;71.74
71523;HTU21D;59343;51.102;5.884;2023-03-04T04:34:53;6.26;71.74
71523;HTU21D;59343;51.102;5.884;2023-03-04T04:37:19;6.25;71.71
71523;HTU21D;59343;51.102;5.884;2023-03-04T04:39:45;6.26;71.95
71523;HTU21D;59343;51.102;5.884;2023-03-04T04:42:11;6.29;71.97
71523;HTU21D;59343;51.102;5.884;2023-03-04T04:44:36;6.29;71.94
71523;HTU21D;59343;51.102;5.884;2023-03-04T04:47:05;6.30;71.88
71523;HTU21D;59343;51.102;5.884;2023-03-04T04:49:31;6.30;71.91
71523;HTU21D;59343;51.102;5.884;2023-03-04T04:51:57;6.30;71.92
71523;HTU21D;59343;51.102;5.884;2023-03-04T04:54:23;6.33;71.96
71523;HTU21D;59343;51.102;5.884;2023-03-04T04:56:50;6.34;72.00
71523;HTU21D;59343;51.102;5.884;2023-03-04T04:59:15;6.35;72.05
71523;HTU21D;59343;51.102;5.884;2023-03-04T05:01:41;6.37;72.03
71523;HTU21D;59343;51.102;5.884;2023-03-04T05:04:07;6.38;71.99
71523;HTU21D;59343;51.102;5.884;2023-03-04T05:06:33;6.37;72.03
71523;HTU21D;59343;51.102;5.884;2023-03-04T05:08:59;6.39;72.00
71523;HTU21D;59343;51.102;5.884;2023-03-04T05:11:25;6.39;71.94
71523;HTU21D;59343;51.102;5.884;2023-03-04T05:13:51;6.39;71.96
71523;HTU21D;59343;51.102;5.884;2023-03-04T05:16:17;6.38;71.96
71523;HTU21D;59343;51.102;5.884;2023-03-04T05:18:44;6.33;72.07
71523;HTU21D;59343;51.102;5.884;2023-03-04T05:21:10;6.31;72.30
71523;HTU21D;59343;51.102;5.884;2023-03-04T05:23:39;6.33;72.27
71523;HTU21D;59343;51.102;5.884;2023-03-04T05:26:07;6.33;72.24
71523;HTU21D;59343;51.102;5.884;2023-03-04T05:28:34;6.31;72.32
71523;HTU21D;59343;51.102;5.884;2023-03-04T05:31:00;6.31;72.35
71523;HTU21D;59343;51.102;5.884;2023-03-04T05:33:26;6.34;72.38
71523;HTU21D;59343;51.102;5.884;2023-03-04T05:35:52;6.34;72.45
71523;HTU21D;59343;51.102;5.884;2023-03-04T05:38:20;6.36;72.51
71523;HTU21D;59343;51.102;5.884;2023-03-04T05:40:47;6.37;72.58
71523;HTU21D;59343;51.102;5.884;2023-03-04T05:43:14;6.37;72.60
71523;HTU21D;59343;51.102;5.884;2023-03-04T05:45:40;6.37;72.80
71523;HTU21D;59343;51.102;5.884;2023-03-04T05:48:07;6.36;73.01
71523;HTU21D;59343;51.102;5.884;2023-03-04T05:50:33;6.33;73.26
71523;HTU21D;59343;51.102;5.884;2023-03-04T05:53:00;6.33;73.41
71523;HTU21D;59343;51.102;5.884;2023-03-04T05:55:26;6.37;73.59
71523;HTU21D;59343;51.102;5.884;2023-03-04T05:57:53;6.40;73.60
71523;HTU21D;59343;51.102;5.884;2023-03-04T06:00:19;6.41;73.41
71523;HTU21D;59343;51.102;5.884;2023-03-04T06:02:45;6.41;73.38
71523;HTU21D;59343;51.102;5.884;2023-03-04T06:05:13;6.40;73.35
71523;HTU21D;59343;51.102;5.884;2023-03-04T06:07:39;6.40;73.32
71523;HTU21D;59343;51.102;5.884;2023-03-04T06:10:05;6.42;73.35
71523;HTU21D;59343;51.102;5.884;2023-03-04T06:12:32;6.43;73.24
71523;HTU21D;59343;51.102;5.884;2023-03-04T06:14:57;6.44;73.19
71523;HTU21D;59343;51.102;5.884;2023-03-04T06:17:23;6.44;72.96
71523;HTU21D;59343;51.102;5.884;2023-03-04T06:19:49;6.43;72.93
71523;HTU21D;59343;51.102;5.884;2023-03-04T06:22:15;6.44;72.84
71523;HTU21D;59343;51.102;5.884;2023-03-04T06:24:41;6.44;72.82
71523;HTU21D;59343;51.102;5.884;2023-03-04T06:27:06;6.45;72.62
71523;HTU21D;59343;51.102;5.884;2023-03-04T06:29:33;6.49;72.65
71523;HTU21D;59343;51.102;5.884;2023-03-04T06:31:58;6.51;72.54
71523;HTU21D;59343;51.102;5.884;2023-03-04T06:34:24;6.53;72.46
71523;HTU21D;59343;51.102;5.884;2023-03-04T06:36:50;6.56;72.49
71523;HTU21D;59343;51.102;5.884;2023-03-04T06:39:16;6.57;72.41
71523;HTU21D;59343;51.102;5.884;2023-03-04T06:41:42;6.67;72.35
71523;HTU21D;59343;51.102;5.884;2023-03-04T06:44:08;6.64;72.36
71523;HTU21D;59343;51.102;5.884;2023-03-04T06:46:34;6.63;72.62
71523;HTU21D;59343;51.102;5.884;2023-03-04T06:49:00;6.61;72.78
71523;HTU21D;59343;51.102;5.884;2023-03-04T06:51:26;6.61;72.87
71523;HTU21D;59343;51.102;5.884;2023-03-04T06:53:52;6.58;73.02
71523;HTU21D;59343;51.102;5.884;2023-03-04T06:56:18;6.59;73.09
71523;HTU21D;59343;51.102;5.884;2023-03-04T06:58:44;6.56;73.00
71523;HTU21D;59343;51.102;5.884;2023-03-04T07:03:40;6.48;72.18
71523;HTU21D;59343;51.102;5.884;2023-03-04T07:06:06;6.45;71.96
71523;HTU21D;59343;51.102;5.884;2023-03-04T07:08:33;6.44;71.74
71523;HTU21D;59343;51.102;5.884;2023-03-04T07:10:59;6.45;71.67
71523;HTU21D;59343;51.102;5.884;2023-03-04T07:13:25;6.44;71.58
71523;HTU21D;59343;51.102;5.884;2023-03-04T07:15:52;6.48;71.38
71523;HTU21D;59343;51.102;5.884;2023-03-04T07:18:18;6.50;71.43
71523;HTU21D;59343;51.102;5.884;2023-03-04T07:20:44;6.51;71.29
71523;HTU21D;59343;51.102;5.884;2023-03-04T07:23:10;6.55;71.20
71523;HTU21D;59343;51.102;5.884;2023-03-04T07:25:36;6.58;70.84
71523;HTU21D;59343;51.102;5.884;2023-03-04T07:28:02;6.57;70.72
71523;HTU21D;59343;51.102;5.884;2023-03-04T07:30:27;6.58;70.72
71523;HTU21D;59343;51.102;5.884;2023-03-04T07:32:56;6.60;70.71
71523;HTU21D;59343;51.102;5.884;2023-03-04T07:35:22;6.61;70.70
71523;HTU21D;59343;51.102;5.884;2023-03-04T07:37:48;6.64;70.84
71523;HTU21D;59343;51.102;5.884;2023-03-04T07:40:14;6.69;70.90
71523;HTU21D;59343;51.102;5.884;2023-03-04T07:42:40;6.71;70.77
71523;HTU21D;59343;51.102;5.884;2023-03-04T07:45:10;6.69;70.90
71523;HTU21D;59343;51.102;5.884;2023-03-04T07:47:37;6.66;71.12
71523;HTU21D;59343;51.102;5.884;2023-03-04T07:50:03;6.66;71.51
71523;HTU21D;59343;51.102;5.884;2023-03-04T07:52:29;6.67;71.83
71523;HTU21D;59343;51.102;5.884;2023-03-04T07:54:55;6.68;72.00
71523;HTU21D;59343;51.102;5.884;2023-03-04T07:57:20;6.69;72.15
71523;HTU21D;59343;51.102;5.884;2023-03-04T07:59:46;6.71;72.16
71523;HTU21D;59343;51.102;5.884;2023-03-04T08:02:12;6.71;72.21
71523;HTU21D;59343;51.102;5.884;2023-03-04T08:04:38;6.71;72.29
71523;HTU21D;59343;51.102;5.884;2023-03-04T08:07:04;6.72;72.41
71523;HTU21D;59343;51.102;5.884;2023-03-04T08:09:30;6.71;72.71
71523;HTU21D;59343;51.102;5.884;2023-03-04T08:11:55;6.72;72.86
71523;HTU21D;59343;51.102;5.884;2023-03-04T08:14:21;6.72;73.05
71523;HTU21D;59343;51.102;5.884;2023-03-04T08:16:47;6.72;73.35
71523;HTU21D;59343;51.102;5.884;2023-03-04T08:19:13;6.75;73.67
71523;HTU21D;59343;51.102;5.884;2023-03-04T08:21:39;6.80;73.83
71523;HTU21D;59343;51.102;5.884;2023-03-04T08:24:05;6.82;73.95
71523;HTU21D;59343;51.102;5.884;2023-03-04T08:26:37;6.83;73.98
71523;HTU21D;59343;51.102;5.884;2023-03-04T08:29:06;6.89;74.24
71523;HTU21D;59343;51.102;5.884;2023-03-04T08:31:33;6.90;74.28
71523;HTU21D;59343;51.102;5.884;2023-03-04T08:33:59;6.91;74.29
71523;HTU21D;59343;51.102;5.884;2023-03-04T08:36:26;6.91;74.22
71523;HTU21D;59343;51.102;5.884;2023-03-04T08:38:52;6.96;74.37
71523;HTU21D;59343;51.102;5.884;2023-03-04T08:41:18;7.01;74.41
71523;HTU21D;59343;51.102;5.884;2023-03-04T08:43:44;7.08;74.30
71523;HTU21D;59343;51.102;5.884;2023-03-04T08:46:11;7.10;74.10
71523;HTU21D;59343;51.102;5.884;2023-03-04T08:48:36;7.08;74.08
71523;HTU21D;59343;51.102;5.884;2023-03-04T08:51:08;7.11;74.06
71523;HTU21D;59343;51.102;5.884;2023-03-04T08:53:36;7.12;74.04
71523;HTU21D;59343;51.102;5.884;2023-03-04T08:56:06;7.16;74.20
71523;HTU21D;59343;51.102;5.884;2023-03-04T08:58:33;7.27;74.06
71523;HTU21D;59343;51.102;5.884;2023-03-04T09:01:00;7.29;73.52
71523;HTU21D;59343;51.102;5.884;2023-03-04T09:03:26;7.34;73.54
71523;HTU21D;59343;51.102;5.884;2023-03-04T09:05:53;7.49;73.58
71523;HTU21D;59343;51.102;5.884;2023-03-04T09:08:19;7.74;73.63
71523;HTU21D;59343;51.102;5.884;2023-03-04T09:10:46;8.00;72.51
71523;HTU21D;59343;51.102;5.884;2023-03-04T09:13:12;8.16;71.74
71523;HTU21D;59343;51.102;5.884;2023-03-04T09:15:45;8.38;71.32
71523;HTU21D;59343;51.102;5.884;2023-03-04T09:18:12;8.75;71.25
71523;HTU21D;59343;51.102;5.884;2023-03-04T09:20:39;9.04;70.06
71523;HTU21D;59343;51.102;5.884;2023-03-04T09:23:05;9.22;68.72
71523;HTU21D;59343;51.102;5.884;2023-03-04T09:25:31;9.33;67.53
71523;HTU21D;59343;51.102;5.884;2023-03-04T09:27:57;9.38;67.42
71523;HTU21D;59343;51.102;5.884;2023-03-04T09:30:23;9.41;66.98
71523;HTU21D;59343;51.102;5.884;2023-03-04T09:32:49;9.47;66.84
71523;HTU21D;59343;51.102;5.884;2023-03-04T09:35:15;9.44;66.81
71523;HTU21D;59343;51.102;5.884;2023-03-04T09:37:41;9.44;66.81
71523;HTU21D;59343;51.102;5.884;2023-03-04T09:40:15;9.53;66.77
71523;HTU21D;59343;51.102;5.884;2023-03-04T09:42:47;9.57;66.24
71523;HTU21D;59343;51.102;5.884;2023-03-04T09:45:21;9.55;65.94
71523;HTU21D;59343;51.102;5.884;2023-03-04T09:47:51;9.51;66.00
71523;HTU21D;59343;51.102;5.884;2023-03-04T09:50:19;9.66;66.47
71523;HTU21D;59343;51.102;5.884;2023-03-04T09:53:06;9.81;65.91
71523;HTU21D;59343;51.102;5.884;2023-03-04T10:15:39;9.12;67.95
71523;HTU21D;59343;51.102;5.884;2023-03-04T10:18:35;9.24;67.80
71523;HTU21D;59343;51.102;5.884;2023-03-04T10:27:16;9.34;66.83
71523;HTU21D;59343;51.102;5.884;2023-03-04T10:33:43;9.32;66.20
71523;HTU21D;59343;51.102;5.884;2023-03-04T10:39:37;9.21;66.98
71523;HTU21D;59343;51.102;5.884;2023-03-04T10:45:11;9.22;66.91
71523;HTU21D;59343;51.102;5.884;2023-03-04T11:16:22;9.66;65.40
71523;HTU21D;59343;51.102;5.884;2023-03-04T11:26:22;9.74;66.52
71523;HTU21D;59343;51.102;5.884;2023-03-04T17:23:35;8.62;78.80
71523;HTU21D;59343;51.102;5.884;2023-03-04T17:26:04;8.58;79.05
71523;HTU21D;59343;51.102;5.884;2023-03-04T17:28:34;8.58;79.30
71523;HTU21D;59343;51.102;5.884;2023-03-04T17:31:13;8.60;79.14
71523;HTU21D;59343;51.102;5.884;2023-03-04T17:33:40;8.58;79.12
71523;HTU21D;59343;51.102;5.884;2023-03-04T17:36:12;8.55;79.03
71523;HTU21D;59343;51.102;5.884;2023-03-04T17:38:38;8.57;78.92
71523;HTU21D;59343;51.102;5.884;2023-03-04T17:41:14;8.58;78.55
71523;HTU21D;59343;51.102;5.884;2023-03-04T17:43:51;8.52;77.92
71523;HTU21D;59343;51.102;5.884;2023-03-04T17:46:25;8.45;77.50
71523;HTU21D;59343;51.102;5.884;2023-03-04T17:48:56;8.45;77.11
71523;HTU21D;59343;51.102;5.884;2023-03-04T17:51:33;8.42;76.62
71523;HTU21D;59343;51.102;5.884;2023-03-04T17:53:59;8.38;76.41
71523;HTU21D;59343;51.102;5.884;2023-03-04T17:56:52;8.35;76.18
71523;HTU21D;59343;51.102;5.884;2023-03-04T17:59:34;8.32;75.96
71523;HTU21D;59343;51.102;5.884;2023-03-04T18:02:01;8.27;75.63
71523;HTU21D;59343;51.102;5.884;2023-03-04T18:30:16;8.11;73.22
71523;HTU21D;59343;51.102;5.884;2023-03-04T18:32:53;8.08;72.87
71523;HTU21D;59343;51.102;5.884;2023-03-04T18:35:34;8.08;72.78
71523;HTU21D;59343;51.102;5.884;2023-03-04T18:38:33;8.14;72.38
71523;HTU21D;59343;51.102;5.884;2023-03-04T18:41:29;8.12;71.91
71523;HTU21D;59343;51.102;5.884;2023-03-04T18:44:06;8.15;71.53
71523;HTU21D;59343;51.102;5.884;2023-03-04T18:49:11;8.11;70.90
71523;HTU21D;59343;51.102;5.884;2023-03-04T18:54:35;8.12;70.17
71523;HTU21D;59343;51.102;5.884;2023-03-04T18:57:10;8.09;70.05
71523;HTU21D;59343;51.102;5.884;2023-03-04T19:02:31;8.08;69.57
71523;HTU21D;59343;51.102;5.884;2023-03-04T19:05:03;8.08;69.51
71523;HTU21D;59343;51.102;5.884;2023-03-04T19:07:30;8.06;69.13
71523;HTU21D;59343;51.102;5.884;2023-03-04T19:09:56;8.02;68.63
71523;HTU21D;59343;51.102;5.884;2023-03-04T19:12:22;7.96;68.73
71523;HTU21D;59343;51.102;5.884;2023-03-04T19:14:48;7.94;68.53
71523;HTU21D;59343;51.102;5.884;2023-03-04T19:17:15;7.94;68.61
71523;HTU21D;59343;51.102;5.884;2023-03-04T19:19:41;7.96;68.31
71523;HTU21D;59343;51.102;5.884;2023-03-04T19:22:10;7.97;67.98
71523;HTU21D;59343;51.102;5.884;2023-03-04T19:24:37;7.98;67.56
71523;HTU21D;59343;51.102;5.884;2023-03-04T19:27:07;7.99;67.04
71523;HTU21D;59343;51.102;5.884;2023-03-04T19:33:57;7.98;66.41
71523;HTU21D;59343;51.102;5.884;2023-03-04T19:41:18;7.93;66.30
71523;HTU21D;59343;51.102;5.884;2023-03-04T19:43:49;7.96;66.27
71523;HTU21D;59343;51.102;5.884;2023-03-04T19:46:40;7.97;66.30
71523;HTU21D;59343;51.102;5.884;2023-03-04T19:49:10;7.99;66.34
71523;HTU21D;59343;51.102;5.884;2023-03-04T19:51:51;7.97;66.35
71523;HTU21D;59343;51.102;5.884;2023-03-04T20:12:47;7.90;68.76
71523;HTU21D;59343;51.102;5.884;2023-03-04T20:16:08;7.87;69.28
71523;HTU21D;59343;51.102;5.884;2023-03-04T20:19:56;7.89;69.70
71523;HTU21D;59343;51.102;5.884;2023-03-04T20:22:27;7.87;69.96
71523;HTU21D;59343;51.102;5.884;2023-03-04T20:37:21;7.72;70.38
71523;HTU21D;59343;51.102;5.884;2023-03-04T20:47:30;7.71;69.11
71523;HTU21D;59343;51.102;5.884;2023-03-04T20:50:21;7.70;68.56
71523;HTU21D;59343;51.102;5.884;2023-03-04T20:53:12;7.70;68.40
71523;HTU21D;59343;51.102;5.884;2023-03-04T20:56:08;7.64;67.87
71523;HTU21D;59343;51.102;5.884;2023-03-04T20:59:39;7.60;67.99
71523;HTU21D;59343;51.102;5.884;2023-03-04T21:03:40;7.58;67.81
71523;HTU21D;59343;51.102;5.884;2023-03-04T21:06:48;7.57;67.59
71523;HTU21D;59343;51.102;5.884;2023-03-04T21:13:33;7.57;67.16
71523;HTU21D;59343;51.102;5.884;2023-03-04T23:14:52;7.42;68.13
71523;HTU21D;59343;51.102;5.884;2023-03-04T23:17:32;7.43;68.12
71523;HTU21D;59343;51.102;5.884;2023-03-04T23:20:19;7.45;68.21
71523;HTU21D;59343;51.102;5.884;2023-03-04T23:22:51;7.45;68.21
71523;HTU21D;59343;51.102;5.884;2023-03-04T23:25:33;7.46;68.13
71523;HTU21D;59343;51.102;5.884;2023-03-04T23:28:23;7.45;68.18
71523;HTU21D;59343;51.102;5.884;2023-03-04T23:31:00;7.42;68.17
71523;HTU21D;59343;51.102;5.884;2023-03-04T23:34:00;7.39;68.20
71523;HTU21D;59343;51.102;5.884;2023-03-04T23:36:35;7.39;68.27
71523;HTU21D;59343;51.102;5.884;2023-03-04T23:39:06;7.40;68.37
71523;HTU21D;59343;51.102;5.884;2023-03-04T23:41:37;7.39;68.30
71523;HTU21D;59343;51.102;5.884;2023-03-04T23:44:13;7.38;68.46
71523;HTU21D;59343;51.102;5.884;2023-03-04T23:46:41;7.37;68.39
71523;HTU21D;59343;51.102;5.884;2023-03-04T23:49:25;7.32;68.55
71523;HTU21D;59343;51.102;5.884;2023-03-04T23:51:57;7.32;68.71
71523;HTU21D;59343;51.102;5.884;2023-03-04T23:54:26;7.33;68.84
71523;HTU21D;59343;51.102;5.884;2023-03-04T23:56:55;7.30;68.93
71523;HTU21D;59343;51.102;5.884;2023-03-04T23:59:26;7.27;69.11
